sensor_id;sensor_type;location;lat;lon;timestamp;P1;durP1;ratioP1;P2;durP2;ratioP2
1414;SDS011;702;49.466;11.086;2023-09-30T00:00:09;9.10;;;3.37;;
1414;SDS011;702;49.466;11.086;2023-09-30T00:02:38;5.17;;;3.07;;
1414;SDS011;702;49.466;11.086;2023-09-30T00:05:05;7.17;;;3.67;;
1414;SDS011;702;49.466;11.086;2023-09-30T00:07:34;7.73;;;3.97;;
1414;SDS011;702;49.466;11.086;2023-09-30T00:10:02;6.60;;;3.53;;
1414;SDS011;702;49.466;11.086;2023-09-30T00:12:30;6.57;;;3.67;;
1414;SDS011;702;49.466;11.086;2023-09-30T00:14:57;6.90;;;3.10;;
1414;SDS011;702;49.466;11.086;2023-09-30T00:17:24;8.50;;;3.87;;
1414;SDS011;702;49.466;11.086;2023-09-30T00:19:52;8.43;;;3.63;;
1414;SDS011;702;49.466;11.086;2023-09-30T00:22:20;9.90;;;3.87;;
1414;SDS011;702;49.466;11.086;2023-09-30T00:24:47;7.20;;;3.70;;
1414;SDS011;702;49.466;11.086;2023-09-30T00:27:14;6.23;;;3.50;;
1414;SDS011;702;49.466;11.086;2023-09-30T00:29:42;5.57;;;3.40;;
1414;SDS011;702;49.466;11.086;2023-09-30T00:32:09;5.70;;;3.57;;
1414;SDS011;702;49.466;11.086;2023-09-30T00:34:36;7.90;;;3.90;;
1414;SDS011;702;49.466;11.086;2023-09-30T00:37:05;7.53;;;3.33;;
1414;SDS011;702;49.466;11.086;2023-09-30T00:39:32;7.03;;;3.70;;
1414;SDS011;702;49.466;11.086;2023-09-30T00:41:59;10.33;;;4.17;;
1414;SDS011;702;49.466;11.086;2023-09-30T00:44:28;7.10;;;3.60;;
1414;SDS011;702;49.466;11.086;2023-09-30T00:46:56;7.10;;;3.20;;
1414;SDS011;702;49.466;11.086;2023-09-30T00:49:23;6.80;;;4.10;;
1414;SDS011;702;49.466;11.086;2023-09-30T00:51:52;8.87;;;3.77;;
1414;SDS011;702;49.466;11.086;2023-09-30T00:54:23;7.70;;;3.97;;
1414;SDS011;702;49.466;11.086;2023-09-30T00:56:52;7.07;;;3.13;;
1414;SDS011;702;49.466;11.086;2023-09-30T00:59:22;4.30;;;3.10;;
1414;SDS011;702;49.466;11.086;2023-09-30T01:01:51;5.10;;;3.07;;
1414;SDS011;702;49.466;11.086;2023-09-30T01:04:22;5.50;;;3.73;;
1414;SDS011;702;49.466;11.086;2023-09-30T01:06:51;6.87;;;3.77;;
1414;SDS011;702;49.466;11.086;2023-09-30T01:09:18;7.07;;;3.17;;
1414;SDS011;702;49.466;11.086;2023-09-30T01:11:47;8.80;;;3.77;;
1414;SDS011;702;49.466;11.086;2023-09-30T01:14:23;6.13;;;3.30;;
1414;SDS011;702;49.466;11.086;2023-09-30T01:16:52;7.63;;;3.70;;
1414;SDS011;702;49.466;11.086;2023-09-30T01:19:20;8.10;;;3.80;;
1414;SDS011;702;49.466;11.086;2023-09-30T01:21:50;7.00;;;3.90;;
1414;SDS011;702;49.466;11.086;2023-09-30T01:24:20;9.73;;;3.80;;
1414;SDS011;702;49.466;11.086;2023-09-30T01:26:47;7.40;;;3.90;;
1414;SDS011;702;49.466;11.086;2023-09-30T01:29:14;5.93;;;3.43;;
1414;SDS011;702;49.466;11.086;2023-09-30T01:31:42;4.97;;;3.10;;
1414;SDS011;702;49.466;11.086;2023-09-30T01:34:12;6.70;;;3.70;;
1414;SDS011;702;49.466;11.086;2023-09-30T01:36:40;7.07;;;3.60;;
1414;SDS011;702;49.466;11.086;2023-09-30T01:39:09;6.53;;;3.70;;
1414;SDS011;702;49.466;11.086;2023-09-30T01:41:37;7.10;;;3.37;;
1414;SDS011;702;49.466;11.086;2023-09-30T01:44:04;7.57;;;4.00;;
1414;SDS011;702;49.466;11.086;2023-09-30T01:46:32;8.30;;;3.90;;
1414;SDS011;702;49.466;11.086;2023-09-30T01:49:00;5.90;;;3.50;;
1414;SDS011;702;49.466;11.086;2023-09-30T01:51:28;6.33;;;3.30;;
1414;SDS011;702;49.466;11.086;2023-09-30T01:53:55;7.27;;;3.70;;
1414;SDS011;702;49.466;11.086;2023-09-30T01:56:24;8.97;;;3.73;;
1414;SDS011;702;49.466;11.086;2023-09-30T01:58:52;4.77;;;3.33;;
1414;SDS011;702;49.466;11.086;2023-09-30T02:01:21;5.13;;;3.30;;
1414;SDS011;702;49.466;11.086;2023-09-30T02:03:48;5.07;;;3.57;;
1414;SDS011;702;49.466;11.086;2023-09-30T02:06:15;5.83;;;3.20;;
1414;SDS011;702;49.466;11.086;2023-09-30T02:08:42;6.43;;;3.57;;
1414;SDS011;702;49.466;11.086;2023-09-30T02:11:10;5.80;;;3.50;;
1414;SDS011;702;49.466;11.086;2023-09-30T02:13:40;6.90;;;3.50;;
1414;SDS011;702;49.466;11.086;2023-09-30T02:16:11;5.03;;;2.97;;
1414;SDS011;702;49.466;11.086;2023-09-30T02:18:38;5.70;;;3.20;;
1414;SDS011;702;49.466;11.086;2023-09-30T02:21:06;7.07;;;3.97;;
1414;SDS011;702;49.466;11.086;2023-09-30T02:23:34;5.23;;;3.93;;
1414;SDS011;702;49.466;11.086;2023-09-30T02:26:01;7.00;;;3.50;;
1414;SDS011;702;49.466;11.086;2023-09-30T02:28:29;7.03;;;4.10;;
1414;SDS011;702;49.466;11.086;2023-09-30T02:31:00;5.03;;;3.30;;
1414;SDS011;702;49.466;11.086;2023-09-30T02:33:27;4.23;;;3.80;;
1414;SDS011;702;49.466;11.086;2023-09-30T02:35:55;5.43;;;3.60;;
1414;SDS011;702;49.466;11.086;2023-09-30T02:38:22;5.97;;;3.47;;
1414;SDS011;702;49.466;11.086;2023-09-30T02:40:50;8.23;;;4.10;;
1414;SDS011;702;49.466;11.086;2023-09-30T02:43:17;5.20;;;3.97;;
1414;SDS011;702;49.466;11.086;2023-09-30T02:45:45;6.53;;;3.70;;
1414;SDS011;702;49.466;11.086;2023-09-30T02:48:14;4.90;;;3.30;;
1414;SDS011;702;49.466;11.086;2023-09-30T02:50:41;6.50;;;3.40;;
1414;SDS011;702;49.466;11.086;2023-09-30T02:53:11;5.50;;;2.90;;
1414;SDS011;702;49.466;11.086;2023-09-30T02:55:39;5.73;;;3.33;;
1414;SDS011;702;49.466;11.086;2023-09-30T02:58:06;6.10;;;3.30;;
1414;SDS011;702;49.466;11.086;2023-09-30T03:00:34;3.00;;;2.47;;
1414;SDS011;702;49.466;11.086;2023-09-30T03:03:03;4.17;;;3.20;;
1414;SDS011;702;49.466;11.086;2023-09-30T03:05:31;8.33;;;3.93;;
1414;SDS011;702;49.466;11.086;2023-09-30T03:07:59;3.77;;;2.83;;
1414;SDS011;702;49.466;11.086;2023-09-30T03:10:27;3.97;;;2.83;;
1414;SDS011;702;49.466;11.086;2023-09-30T03:12:54;4.40;;;3.20;;
1414;SDS011;702;49.466;11.086;2023-09-30T03:15:21;2.63;;;2.40;;
1414;SDS011;702;49.466;11.086;2023-09-30T03:17:50;3.93;;;3.07;;
1414;SDS011;702;49.466;11.086;2023-09-30T03:20:17;3.30;;;2.70;;
1414;SDS011;702;49.466;11.086;2023-09-30T03:22:47;4.33;;;3.30;;
1414;SDS011;702;49.466;11.086;2023-09-30T03:25:14;7.90;;;2.60;;
1414;SDS011;702;49.466;11.086;2023-09-30T03:27:43;4.13;;;2.40;;
1414;SDS011;702;49.466;11.086;2023-09-30T03:30:12;4.33;;;3.10;;
1414;SDS011;702;49.466;11.086;2023-09-30T03:32:40;4.20;;;3.23;;
1414;SDS011;702;49.466;11.086;2023-09-30T03:35:09;5.77;;;3.40;;
1414;SDS011;702;49.466;11.086;2023-09-30T03:37:40;4.17;;;3.03;;
1414;SDS011;702;49.466;11.086;2023-09-30T03:40:09;6.23;;;3.27;;
1414;SDS011;702;49.466;11.086;2023-09-30T03:42:43;4.57;;;3.13;;
1414;SDS011;702;49.466;11.086;2023-09-30T03:45:14;7.10;;;3.83;;
1414;SDS011;702;49.466;11.086;2023-09-30T03:47:42;5.80;;;4.03;;
1414;SDS011;702;49.466;11.086;2023-09-30T03:50:10;7.60;;;4.00;;
1414;SDS011;702;49.466;11.086;2023-09-30T03:52:40;8.90;;;3.80;;
1414;SDS011;702;49.466;11.086;2023-09-30T03:55:11;4.20;;;3.27;;
1414;SDS011;702;49.466;11.086;2023-09-30T03:57:40;4.40;;;3.10;;
1414;SDS011;702;49.466;11.086;2023-09-30T04:00:08;3.70;;;2.87;;
1414;SDS011;702;49.466;11.086;2023-09-30T04:02:41;5.30;;;3.07;;
1414;SDS011;702;49.466;11.086;2023-09-30T04:05:09;5.83;;;3.10;;
1414;SDS011;702;49.466;11.086;2023-09-30T04:07:39;3.87;;;3.00;;
1414;SDS011;702;49.466;11.086;2023-09-30T04:10:07;5.10;;;3.17;;
1414;SDS011;702;49.466;11.086;2023-09-30T04:12:37;4.40;;;3.50;;
1414;SDS011;702;49.466;11.086;2023-09-30T04:15:04;5.53;;;3.30;;
1414;SDS011;702;49.466;11.086;2023-09-30T04:17:34;3.80;;;3.40;;
1414;SDS011;702;49.466;11.086;2023-09-30T04:20:04;8.07;;;3.70;;
1414;SDS011;702;49.466;11.086;2023-09-30T04:22:35;9.53;;;4.80;;
1414;SDS011;702;49.466;11.086;2023-09-30T04:25:02;5.93;;;4.13;;
1414;SDS011;702;49.466;11.086;2023-09-30T04:27:34;6.37;;;4.10;;
1414;SDS011;702;49.466;11.086;2023-09-30T04:30:03;6.53;;;4.40;;
1414;SDS011;702;49.466;11.086;2023-09-30T04:32:34;6.23;;;3.83;;
1414;SDS011;702;49.466;11.086;2023-09-30T04:35:02;4.00;;;3.60;;
1414;SDS011;702;49.466;11.086;2023-09-30T04:37:30;8.57;;;3.97;;
1414;SDS011;702;49.466;11.086;2023-09-30T04:39:57;9.33;;;4.87;;
1414;SDS011;702;49.466;11.086;2023-09-30T04:42:24;5.53;;;3.97;;
1414;SDS011;702;49.466;11.086;2023-09-30T04:44:52;6.87;;;4.37;;
1414;SDS011;702;49.466;11.086;2023-09-30T04:47:22;3.77;;;3.27;;
1414;SDS011;702;49.466;11.086;2023-09-30T04:49:49;4.73;;;3.33;;
1414;SDS011;702;49.466;11.086;2023-09-30T04:52:17;6.67;;;3.97;;
1414;SDS011;702;49.466;11.086;2023-09-30T04:54:45;3.80;;;3.23;;
1414;SDS011;702;49.466;11.086;2023-09-30T04:57:13;4.07;;;3.23;;
1414;SDS011;702;49.466;11.086;2023-09-30T04:59:40;7.63;;;3.30;;
1414;SDS011;702;49.466;11.086;2023-09-30T05:02:08;5.87;;;4.03;;
1414;SDS011;702;49.466;11.086;2023-09-30T05:04:41;7.53;;;4.70;;
1414;SDS011;702;49.466;11.086;2023-09-30T05:07:09;4.50;;;3.10;;
1414;SDS011;702;49.466;11.086;2023-09-30T05:09:38;4.37;;;3.80;;
1414;SDS011;702;49.466;11.086;2023-09-30T05:12:06;8.43;;;3.93;;
1414;SDS011;702;49.466;11.086;2023-09-30T05:14:34;5.53;;;3.83;;
1414;SDS011;702;49.466;11.086;2023-09-30T05:17:01;5.30;;;3.80;;
1414;SDS011;702;49.466;11.086;2023-09-30T05:19:30;7.03;;;3.80;;
1414;SDS011;702;49.466;11.086;2023-09-30T05:21:59;5.73;;;3.70;;
1414;SDS011;702;49.466;11.086;2023-09-30T05:24:28;5.70;;;3.67;;
1414;SDS011;702;49.466;11.086;2023-09-30T05:26:55;4.73;;;3.57;;
1414;SDS011;702;49.466;11.086;2023-09-30T05:29:23;5.17;;;3.83;;
1414;SDS011;702;49.466;11.086;2023-09-30T05:31:50;4.87;;;3.83;;
1414;SDS011;702;49.466;11.086;2023-09-30T05:34:17;7.03;;;5.70;;
1414;SDS011;702;49.466;11.086;2023-09-30T05:36:44;7.40;;;5.23;;
1414;SDS011;702;49.466;11.086;2023-09-30T05:39:12;7.70;;;5.00;;
1414;SDS011;702;49.466;11.086;2023-09-30T05:41:44;9.17;;;4.47;;
1414;SDS011;702;49.466;11.086;2023-09-30T05:44:12;7.30;;;4.63;;
1414;SDS011;702;49.466;11.086;2023-09-30T05:46:40;6.33;;;4.17;;
1414;SDS011;702;49.466;11.086;2023-09-30T05:49:08;5.53;;;4.83;;
1414;SDS011;702;49.466;11.086;2023-09-30T05:51:38;5.90;;;4.57;;
1414;SDS011;702;49.466;11.086;2023-09-30T05:54:06;7.47;;;4.53;;
1414;SDS011;702;49.466;11.086;2023-09-30T05:56:36;9.23;;;4.43;;
1414;SDS011;702;49.466;11.086;2023-09-30T05:59:03;4.70;;;3.90;;
1414;SDS011;702;49.466;11.086;2023-09-30T06:01:32;5.83;;;4.20;;
1414;SDS011;702;49.466;11.086;2023-09-30T06:04:01;6.27;;;4.30;;
1414;SDS011;702;49.466;11.086;2023-09-30T06:06:30;5.33;;;3.93;;
1414;SDS011;702;49.466;11.086;2023-09-30T06:08:57;5.63;;;3.80;;
1414;SDS011;702;49.466;11.086;2023-09-30T06:11:25;9.37;;;5.03;;
1414;SDS011;702;49.466;11.086;2023-09-30T06:13:54;6.63;;;4.60;;
1414;SDS011;702;49.466;11.086;2023-09-30T06:16:24;7.87;;;4.50;;
1414;SDS011;702;49.466;11.086;2023-09-30T06:18:52;8.50;;;5.07;;
1414;SDS011;702;49.466;11.086;2023-09-30T06:21:19;6.27;;;4.80;;
1414;SDS011;702;49.466;11.086;2023-09-30T06:23:47;5.57;;;4.17;;
1414;SDS011;702;49.466;11.086;2023-09-30T06:26:17;5.80;;;4.20;;
1414;SDS011;702;49.466;11.086;2023-09-30T06:28:46;9.93;;;4.60;;
1414;SDS011;702;49.466;11.086;2023-09-30T06:31:15;8.17;;;4.00;;
1414;SDS011;702;49.466;11.086;2023-09-30T06:33:42;5.33;;;4.23;;
1414;SDS011;702;49.466;11.086;2023-09-30T06:36:10;6.20;;;5.13;;
1414;SDS011;702;49.466;11.086;2023-09-30T06:38:39;7.17;;;4.97;;
1414;SDS011;702;49.466;11.086;2023-09-30T06:41:07;6.43;;;4.40;;
1414;SDS011;702;49.466;11.086;2023-09-30T06:43:35;9.77;;;4.70;;
1414;SDS011;702;49.466;11.086;2023-09-30T06:46:05;7.47;;;4.70;;
1414;SDS011;702;49.466;11.086;2023-09-30T06:48:35;6.50;;;4.40;;
1414;SDS011;702;49.466;11.086;2023-09-30T06:51:05;9.00;;;4.40;;
1414;SDS011;702;49.466;11.086;2023-09-30T06:53:33;4.53;;;4.13;;
1414;SDS011;702;49.466;11.086;2023-09-30T06:56:02;8.77;;;4.90;;
1414;SDS011;702;49.466;11.086;2023-09-30T06:58:33;5.70;;;5.10;;
1414;SDS011;702;49.466;11.086;2023-09-30T07:01:01;8.77;;;4.60;;
1414;SDS011;702;49.466;11.086;2023-09-30T07:03:28;7.37;;;4.70;;
1414;SDS011;702;49.466;11.086;2023-09-30T07:05:59;7.43;;;4.60;;
1414;SDS011;702;49.466;11.086;2023-09-30T07:08:27;6.73;;;4.93;;
1414;SDS011;702;49.466;11.086;2023-09-30T07:10:55;8.70;;;6.33;;
1414;SDS011;702;49.466;11.086;2023-09-30T07:13:22;6.80;;;4.33;;
1414;SDS011;702;49.466;11.086;2023-09-30T07:15:49;7.23;;;4.87;;
1414;SDS011;702;49.466;11.086;2023-09-30T07:18:17;5.17;;;4.10;;
1414;SDS011;702;49.466;11.086;2023-09-30T07:20:44;9.90;;;4.80;;
1414;SDS011;702;49.466;11.086;2023-09-30T07:23:13;4.50;;;3.80;;
1414;SDS011;702;49.466;11.086;2023-09-30T07:25:40;9.50;;;4.93;;
1414;SDS011;702;49.466;11.086;2023-09-30T07:28:08;4.97;;;3.73;;
1414;SDS011;702;49.466;11.086;2023-09-30T07:30:37;5.03;;;3.80;;
1414;SDS011;702;49.466;11.086;2023-09-30T07:33:05;4.50;;;3.83;;
1414;SDS011;702;49.466;11.086;2023-09-30T07:35:32;4.50;;;3.67;;
1414;SDS011;702;49.466;11.086;2023-09-30T07:38:00;8.50;;;4.53;;
1414;SDS011;702;49.466;11.086;2023-09-30T07:40:29;7.90;;;4.40;;
1414;SDS011;702;49.466;11.086;2023-09-30T07:42:56;5.03;;;3.47;;
1414;SDS011;702;49.466;11.086;2023-09-30T07:45:23;4.60;;;3.80;;
1414;SDS011;702;49.466;11.086;2023-09-30T07:47:51;5.87;;;3.40;;
1414;SDS011;702;49.466;11.086;2023-09-30T07:50:18;9.13;;;4.03;;
1414;SDS011;702;49.466;11.086;2023-09-30T07:52:45;5.73;;;4.10;;
1414;SDS011;702;49.466;11.086;2023-09-30T07:55:12;4.93;;;4.00;;
1414;SDS011;702;49.466;11.086;2023-09-30T07:57:41;6.33;;;3.67;;
1414;SDS011;702;49.466;11.086;2023-09-30T08:00:10;5.63;;;3.00;;
1414;SDS011;702;49.466;11.086;2023-09-30T08:02:40;4.43;;;3.63;;
1414;SDS011;702;49.466;11.086;2023-09-30T08:05:09;4.53;;;4.13;;
1414;SDS011;702;49.466;11.086;2023-09-30T08:07:37;4.80;;;3.27;;
1414;SDS011;702;49.466;11.086;2023-09-30T08:10:05;4.37;;;3.50;;
1414;SDS011;702;49.466;11.086;2023-09-30T08:12:38;5.63;;;3.40;;
1414;SDS011;702;49.466;11.086;2023-09-30T08:15:08;6.53;;;3.90;;
1414;SDS011;702;49.466;11.086;2023-09-30T08:17:38;3.60;;;2.60;;
1414;SDS011;702;49.466;11.086;2023-09-30T08:20:05;4.10;;;3.30;;
1414;SDS011;702;49.466;11.086;2023-09-30T08:22:36;4.83;;;3.20;;
1414;SDS011;702;49.466;11.086;2023-09-30T08:25:03;10.23;;;3.97;;
1414;SDS011;702;49.466;11.086;2023-09-30T08:27:33;5.47;;;3.37;;
1414;SDS011;702;49.466;11.086;2023-09-30T08:30:02;6.10;;;3.27;;
1414;SDS011;702;49.466;11.086;2023-09-30T08:32:33;3.47;;;3.10;;
1414;SDS011;702;49.466;11.086;2023-09-30T08:35:01;8.40;;;3.90;;
1414;SDS011;702;49.466;11.086;2023-09-30T08:37:29;5.83;;;3.33;;
1414;SDS011;702;49.466;11.086;2023-09-30T08:39:56;7.03;;;3.70;;
1414;SDS011;702;49.466;11.086;2023-09-30T08:42:24;4.80;;;3.87;;
1414;SDS011;702;49.466;11.086;2023-09-30T08:44:57;4.40;;;3.30;;
1414;SDS011;702;49.466;11.086;2023-09-30T08:47:25;7.33;;;3.10;;
1414;SDS011;702;49.466;11.086;2023-09-30T08:49:54;5.43;;;2.33;;
1414;SDS011;702;49.466;11.086;2023-09-30T08:52:31;6.17;;;3.20;;
1414;SDS011;702;49.466;11.086;2023-09-30T08:54:59;6.30;;;2.43;;
1414;SDS011;702;49.466;11.086;2023-09-30T08:57:27;5.30;;;2.70;;
1414;SDS011;702;49.466;11.086;2023-09-30T08:59:55;3.60;;;2.70;;
1414;SDS011;702;49.466;11.086;2023-09-30T09:02:22;5.00;;;2.90;;
1414;SDS011;702;49.466;11.086;2023-09-30T09:04:49;3.97;;;2.47;;
1414;SDS011;702;49.466;11.086;2023-09-30T09:07:19;3.17;;;2.53;;
1414;SDS011;702;49.466;11.086;2023-09-30T09:12:33;3.20;;;2.80;;
1414;SDS011;702;49.466;11.086;2023-09-30T09:15:02;4.97;;;2.67;;
1414;SDS011;702;49.466;11.086;2023-09-30T09:17:41;5.07;;;3.10;;
1414;SDS011;702;49.466;11.086;2023-09-30T09:20:10;2.77;;;2.30;;
1414;SDS011;702;49.466;11.086;2023-09-30T09:22:42;3.77;;;2.70;;
1414;SDS011;702;49.466;11.086;2023-09-30T09:25:10;6.90;;;2.83;;
1414;SDS011;702;49.466;11.086;2023-09-30T09:27:37;4.90;;;2.50;;
1414;SDS011;702;49.466;11.086;2023-09-30T09:30:15;4.60;;;3.27;;
1414;SDS011;702;49.466;11.086;2023-09-30T09:32:59;4.43;;;3.17;;
1414;SDS011;702;49.466;11.086;2023-09-30T09:35:29;3.50;;;2.77;;
1414;SDS011;702;49.466;11.086;2023-09-30T09:38:00;6.70;;;3.10;;
1414;SDS011;702;49.466;11.086;2023-09-30T09:40:30;3.13;;;2.83;;
1414;SDS011;702;49.466;11.086;2023-09-30T09:42:59;4.80;;;3.47;;
1414;SDS011;702;49.466;11.086;2023-09-30T09:45:30;5.80;;;3.10;;
1414;SDS011;702;49.466;11.086;2023-09-30T09:48:00;5.60;;;2.90;;
1414;SDS011;702;49.466;11.086;2023-09-30T09:50:29;4.40;;;3.30;;
1414;SDS011;702;49.466;11.086;2023-09-30T09:52:58;3.30;;;2.23;;
1414;SDS011;702;49.466;11.086;2023-09-30T09:55:28;4.33;;;2.97;;
1414;SDS011;702;49.466;11.086;2023-09-30T09:57:55;4.00;;;2.83;;
1414;SDS011;702;49.466;11.086;2023-09-30T10:00:25;4.33;;;3.27;;
1414;SDS011;702;49.466;11.086;2023-09-30T10:02:52;5.53;;;2.40;;
1414;SDS011;702;49.466;11.086;2023-09-30T10:05:20;4.13;;;3.10;;
1414;SDS011;702;49.466;11.086;2023-09-30T10:07:50;5.53;;;3.30;;
1414;SDS011;702;49.466;11.086;2023-09-30T10:10:22;4.47;;;2.60;;
1414;SDS011;702;49.466;11.086;2023-09-30T10:12:51;6.37;;;2.50;;
1414;SDS011;702;49.466;11.086;2023-09-30T10:15:34;5.90;;;3.50;;
1414;SDS011;702;49.466;11.086;2023-09-30T10:18:06;5.67;;;3.27;;
1414;SDS011;702;49.466;11.086;2023-09-30T10:20:36;5.97;;;3.47;;
1414;SDS011;702;49.466;11.086;2023-09-30T10:23:21;5.07;;;3.17;;
1414;SDS011;702;49.466;11.086;2023-09-30T10:25:53;5.17;;;2.80;;
1414;SDS011;702;49.466;11.086;2023-09-30T10:28:42;5.77;;;3.20;;
1414;SDS011;702;49.466;11.086;2023-09-30T10:31:12;7.63;;;3.03;;
1414;SDS011;702;49.466;11.086;2023-09-30T10:36:47;3.70;;;3.03;;
1414;SDS011;702;49.466;11.086;2023-09-30T10:39:52;4.60;;;2.93;;
1414;SDS011;702;49.466;11.086;2023-09-30T10:42:44;6.33;;;3.00;;
1414;SDS011;702;49.466;11.086;2023-09-30T10:51:12;6.40;;;3.60;;
1414;SDS011;702;49.466;11.086;2023-09-30T10:53:45;4.93;;;2.97;;
1414;SDS011;702;49.466;11.086;2023-09-30T10:56:17;8.27;;;3.60;;
1414;SDS011;702;49.466;11.086;2023-09-30T10:58:46;5.97;;;3.73;;
1414;SDS011;702;49.466;11.086;2023-09-30T11:01:16;5.37;;;3.47;;
1414;SDS011;702;49.466;11.086;2023-09-30T11:03:45;5.90;;;3.07;;
1414;SDS011;702;49.466;11.086;2023-09-30T11:06:16;6.33;;;3.10;;
1414;SDS011;702;49.466;11.086;2023-09-30T11:08:50;5.87;;;2.90;;
1414;SDS011;702;49.466;11.086;2023-09-30T11:11:19;4.20;;;2.83;;
1414;SDS011;702;49.466;11.086;2023-09-30T11:14:03;4.67;;;3.00;;
1414;SDS011;702;49.466;11.086;2023-09-30T11:16:39;5.80;;;3.30;;
1414;SDS011;702;49.466;11.086;2023-09-30T11:19:08;3.53;;;2.30;;
1414;SDS011;702;49.466;11.086;2023-09-30T11:21:36;4.63;;;2.90;;
1414;SDS011;702;49.466;11.086;2023-09-30T11:24:05;3.97;;;2.53;;
1414;SDS011;702;49.466;11.086;2023-09-30T11:26:33;4.57;;;3.20;;
1414;SDS011;702;49.466;11.086;2023-09-30T11:29:08;8.00;;;3.03;;
1414;SDS011;702;49.466;11.086;2023-09-30T11:31:37;4.93;;;2.63;;
1414;SDS011;702;49.466;11.086;2023-09-30T11:34:05;2.97;;;2.23;;
1414;SDS011;702;49.466;11.086;2023-09-30T11:36:37;5.00;;;3.40;;
1414;SDS011;702;49.466;11.086;2023-09-30T11:39:07;5.73;;;3.23;;
1414;SDS011;702;49.466;11.086;2023-09-30T11:41:37;4.00;;;2.67;;
1414;SDS011;702;49.466;11.086;2023-09-30T11:44:08;3.30;;;2.70;;
1414;SDS011;702;49.466;11.086;2023-09-30T11:46:47;4.40;;;2.97;;
1414;SDS011;702;49.466;11.086;2023-09-30T11:49:24;9.17;;;3.93;;
1414;SDS011;702;49.466;11.086;2023-09-30T11:51:53;5.07;;;3.03;;
1414;SDS011;702;49.466;11.086;2023-09-30T11:54:21;4.60;;;3.07;;
1414;SDS011;702;49.466;11.086;2023-09-30T11:56:49;4.10;;;3.13;;
1414;SDS011;702;49.466;11.086;2023-09-30T11:59:18;5.13;;;3.60;;
1414;SDS011;702;49.466;11.086;2023-09-30T12:01:47;4.00;;;3.10;;
1414;SDS011;702;49.466;11.086;2023-09-30T12:04:16;3.70;;;2.80;;
1414;SDS011;702;49.466;11.086;2023-09-30T12:06:45;4.00;;;3.00;;
1414;SDS011;702;49.466;11.086;2023-09-30T12:09:13;3.57;;;2.50;;
1414;SDS011;702;49.466;11.086;2023-09-30T12:11:41;4.90;;;2.80;;
1414;SDS011;702;49.466;11.086;2023-09-30T12:14:11;7.87;;;3.50;;
1414;SDS011;702;49.466;11.086;2023-09-30T12:16:40;3.70;;;2.40;;
1414;SDS011;702;49.466;11.086;2023-09-30T12:19:10;3.97;;;2.63;;
1414;SDS011;702;49.466;11.086;2023-09-30T12:21:38;3.97;;;2.70;;
1414;SDS011;702;49.466;11.086;2023-09-30T12:24:06;5.10;;;2.90;;
1414;SDS011;702;49.466;11.086;2023-09-30T12:26:34;4.77;;;2.83;;
1414;SDS011;702;49.466;11.086;2023-09-30T12:29:01;5.47;;;3.50;;
1414;SDS011;702;49.466;11.086;2023-09-30T12:31:31;5.63;;;3.40;;
1414;SDS011;702;49.466;11.086;2023-09-30T12:34:00;5.13;;;3.40;;
1414;SDS011;702;49.466;11.086;2023-09-30T12:36:27;4.30;;;3.30;;
1414;SDS011;702;49.466;11.086;2023-09-30T12:38:55;6.40;;;3.70;;
1414;SDS011;702;49.466;11.086;2023-09-30T12:41:22;5.87;;;3.90;;
1414;SDS011;702;49.466;11.086;2023-09-30T12:43:49;4.83;;;3.13;;
1414;SDS011;702;49.466;11.086;2023-09-30T12:46:16;3.87;;;2.83;;
1414;SDS011;702;49.466;11.086;2023-09-30T12:48:44;7.00;;;3.83;;
1414;SDS011;702;49.466;11.086;2023-09-30T12:51:12;6.10;;;3.70;;
1414;SDS011;702;49.466;11.086;2023-09-30T12:53:40;10.33;;;3.80;;
1414;SDS011;702;49.466;11.086;2023-09-30T12:56:08;5.00;;;3.23;;
1414;SDS011;702;49.466;11.086;2023-09-30T12:58:35;3.97;;;3.20;;
1414;SDS011;702;49.466;11.086;2023-09-30T13:01:03;4.40;;;3.10;;
1414;SDS011;702;49.466;11.086;2023-09-30T13:03:31;5.47;;;3.00;;
1414;SDS011;702;49.466;11.086;2023-09-30T13:05:59;4.30;;;3.30;;
1414;SDS011;702;49.466;11.086;2023-09-30T13:08:27;6.57;;;3.80;;
1414;SDS011;702;49.466;11.086;2023-09-30T13:10:59;3.23;;;2.93;;
1414;SDS011;702;49.466;11.086;2023-09-30T13:13:27;5.57;;;3.10;;
1414;SDS011;702;49.466;11.086;2023-09-30T13:15:55;6.10;;;3.30;;
1414;SDS011;702;49.466;11.086;2023-09-30T13:18:23;8.33;;;3.40;;
1414;SDS011;702;49.466;11.086;2023-09-30T13:20:50;7.53;;;3.70;;
1414;SDS011;702;49.466;11.086;2023-09-30T13:23:18;4.40;;;3.83;;
1414;SDS011;702;49.466;11.086;2023-09-30T13:25:47;4.87;;;3.60;;
1414;SDS011;702;49.466;11.086;2023-09-30T13:28:14;5.40;;;3.30;;
1414;SDS011;702;49.466;11.086;2023-09-30T13:30:41;5.80;;;3.57;;
1414;SDS011;702;49.466;11.086;2023-09-30T13:33:11;4.97;;;3.57;;
1414;SDS011;702;49.466;11.086;2023-09-30T13:35:38;10.10;;;3.77;;
1414;SDS011;702;49.466;11.086;2023-09-30T13:38:05;6.53;;;4.23;;
1414;SDS011;702;49.466;11.086;2023-09-30T13:40:33;5.93;;;3.63;;
1414;SDS011;702;49.466;11.086;2023-09-30T13:43:01;5.60;;;3.40;;
1414;SDS011;702;49.466;11.086;2023-09-30T13:45:30;7.30;;;3.50;;
1414;SDS011;702;49.466;11.086;2023-09-30T13:47:57;6.30;;;4.37;;
1414;SDS011;702;49.466;11.086;2023-09-30T13:50:25;4.83;;;3.80;;
1414;SDS011;702;49.466;11.086;2023-09-30T13:52:52;7.60;;;4.00;;
1414;SDS011;702;49.466;11.086;2023-09-30T13:55:19;8.90;;;4.47;;
1414;SDS011;702;49.466;11.086;2023-09-30T13:57:47;7.90;;;3.87;;
1414;SDS011;702;49.466;11.086;2023-09-30T14:00:17;6.40;;;4.00;;
1414;SDS011;702;49.466;11.086;2023-09-30T14:02:44;6.70;;;4.17;;
1414;SDS011;702;49.466;11.086;2023-09-30T14:05:11;5.90;;;3.70;;
1414;SDS011;702;49.466;11.086;2023-09-30T14:07:39;5.63;;;4.00;;
1414;SDS011;702;49.466;11.086;2023-09-30T14:10:07;7.10;;;4.23;;
1414;SDS011;702;49.466;11.086;2023-09-30T14:12:36;7.87;;;4.10;;
1414;SDS011;702;49.466;11.086;2023-09-30T14:15:04;6.07;;;3.90;;
1414;SDS011;702;49.466;11.086;2023-09-30T14:17:34;6.43;;;3.83;;
1414;SDS011;702;49.466;11.086;2023-09-30T14:20:02;4.20;;;3.47;;
1414;SDS011;702;49.466;11.086;2023-09-30T14:22:30;7.37;;;3.83;;
1414;SDS011;702;49.466;11.086;2023-09-30T14:24:58;4.23;;;3.60;;
1414;SDS011;702;49.466;11.086;2023-09-30T14:27:25;8.00;;;4.10;;
1414;SDS011;702;49.466;11.086;2023-09-30T14:29:52;7.70;;;3.73;;
1414;SDS011;702;49.466;11.086;2023-09-30T14:32:19;9.10;;;3.27;;
1414;SDS011;702;49.466;11.086;2023-09-30T14:34:50;5.93;;;3.63;;
1414;SDS011;702;49.466;11.086;2023-09-30T14:37:17;5.60;;;4.20;;
1414;SDS011;702;49.466;11.086;2023-09-30T14:39:44;6.37;;;4.67;;
1414;SDS011;702;49.466;11.086;2023-09-30T14:42:12;6.63;;;4.77;;
1414;SDS011;702;49.466;11.086;2023-09-30T14:44:39;4.93;;;3.93;;
1414;SDS011;702;49.466;11.086;2023-09-30T14:47:07;7.80;;;4.30;;
1414;SDS011;702;49.466;11.086;2023-09-30T14:49:35;5.67;;;4.20;;
1414;SDS011;702;49.466;11.086;2023-09-30T14:52:03;6.47;;;4.30;;
1414;SDS011;702;49.466;11.086;2023-09-30T14:54:31;5.73;;;4.17;;
1414;SDS011;702;49.466;11.086;2023-09-30T14:56:58;5.40;;;3.67;;
1414;SDS011;702;49.466;11.086;2023-09-30T14:59:25;6.70;;;4.00;;
1414;SDS011;702;49.466;11.086;2023-09-30T15:01:52;6.07;;;4.27;;
1414;SDS011;702;49.466;11.086;2023-09-30T15:04:20;6.80;;;4.33;;
1414;SDS011;702;49.466;11.086;2023-09-30T15:06:47;10.13;;;4.70;;
1414;SDS011;702;49.466;11.086;2023-09-30T15:09:16;6.00;;;3.90;;
1414;SDS011;702;49.466;11.086;2023-09-30T15:11:43;7.13;;;4.60;;
1414;SDS011;702;49.466;11.086;2023-09-30T15:14:10;6.10;;;4.33;;
1414;SDS011;702;49.466;11.086;2023-09-30T15:16:37;9.83;;;4.60;;
1414;SDS011;702;49.466;11.086;2023-09-30T15:19:04;7.57;;;4.70;;
1414;SDS011;702;49.466;11.086;2023-09-30T15:21:31;5.33;;;3.97;;
1414;SDS011;702;49.466;11.086;2023-09-30T15:23:59;4.83;;;3.50;;
1414;SDS011;702;49.466;11.086;2023-09-30T15:26:29;6.63;;;4.37;;
1414;SDS011;702;49.466;11.086;2023-09-30T15:28:57;6.70;;;4.33;;
1414;SDS011;702;49.466;11.086;2023-09-30T15:31:26;4.83;;;3.67;;
1414;SDS011;702;49.466;11.086;2023-09-30T15:33:55;8.53;;;4.50;;
1414;SDS011;702;49.466;11.086;2023-09-30T15:36:22;6.20;;;4.13;;